sensor_id;sensor_type;location;lat;lon;timestamp;pressure;altitude;pressure_sealevel;temperature;humidity
21902;BME280;11115;46.038;14.612;2022-11-20T00:01:31;97848.97;;;4.52;100.00
21902;BME280;11115;46.038;14.612;2022-11-20T00:04:00;97848.44;;;4.50;100.00
21902;BME280;11115;46.038;14.612;2022-11-20T00:06:30;97856.41;;;4.47;100.00
21902;BME280;11115;46.038;14.612;2022-11-20T00:08:59;97863.47;;;4.53;100.00
21902;BME280;11115;46.038;14.612;2022-11-20T00:11:29;97864.22;;;4.64;100.00
21902;BME280;11115;46.038;14.612;2022-11-20T00:13:59;97863.44;;;4.58;100.00
21902;BME280;11115;46.038;14.612;2022-11-20T00:16:30;97846.78;;;4.49;100.00
21902;BME280;11115;46.038;14.612;2022-11-20T00:18:58;97860.69;;;4.58;100.00
21902;BME280;11115;46.038;14.612;2022-11-20T00:21:27;97845.59;;;4.26;100.00
21902;BME280;11115;46.038;14.612;2022-11-20T00:23:58;97867.22;;;4.28;100.00
21902;BME280;11115;46.038;14.612;2022-11-20T00:26:27;97866.34;;;4.33;100.00
21902;BME280;11115;46.038;14.612;2022-11-20T00:28:59;97859.72;;;4.44;100.00
21902;BME280;11115;46.038;14.612;2022-11-20T00:31:28;97876.03;;;4.59;100.00
21902;BME280;11115;46.038;14.612;2022-11-20T00:33:56;97878.03;;;4.43;100.00
21902;BME280;11115;46.038;14.612;2022-11-20T00:36:27;97883.25;;;4.45;100.00
21902;BME280;11115;46.038;14.612;2022-11-20T00:38:56;97882.44;;;4.44;100.00
21902;BME280;11115;46.038;14.612;2022-11-20T00:41:26;97877.22;;;4.43;100.00
21902;BME280;11115;46.038;14.612;2022-11-20T00:43:55;97860.38;;;4.25;100.00
21902;BME280;11115;46.038;14.612;2022-11-20T00:46:25;97866.63;;;4.31;100.00
21902;BME280;11115;46.038;14.612;2022-11-20T00:48:53;97861.44;;;4.30;100.00
21902;BME280;11115;46.038;14.612;2022-11-20T00:51:23;97880.19;;;4.51;100.00
21902;BME280;11115;46.038;14.612;2022-11-20T00:53:51;97867.94;;;4.39;100.00
21902;BME280;11115;46.038;14.612;2022-11-20T00:56:19;97878.88;;;4.44;100.00
21902;BME280;11115;46.038;14.612;2022-11-20T00:58:48;97872.31;;;4.45;100.00
21902;BME280;11115;46.038;14.612;2022-11-20T01:01:21;97874.66;;;4.56;100.00
21902;BME280;11115;46.038;14.612;2022-11-20T01:03:52;97880.91;;;4.62;100.00
21902;BME280;11115;46.038;14.612;2022-11-20T01:06:23;97885.31;;;4.63;100.00
21902;BME280;11115;46.038;14.612;2022-11-20T01:08:54;97887.63;;;4.41;100.00
21902;BME280;11115;46.038;14.612;2022-11-20T01:11:24;97891.47;;;4.45;100.00
21902;BME280;11115;46.038;14.612;2022-11-20T01:13:53;97895.56;;;4.42;100.00
21902;BME280;11115;46.038;14.612;2022-11-20T01:18:56;97895.84;;;4.46;100.00
21902;BME280;11115;46.038;14.612;2022-11-20T01:21:27;97888.75;;;4.40;100.00
21902;BME280;11115;46.038;14.612;2022-11-20T01:23:55;97898.06;;;4.44;100.00
21902;BME280;11115;46.038;14.612;2022-11-20T01:26:26;97900.22;;;4.47;100.00
21902;BME280;11115;46.038;14.612;2022-11-20T01:28:55;97892.22;;;4.55;100.00
21902;BME280;11115;46.038;14.612;2022-11-20T01:31:26;97905.31;;;4.64;100.00
21902;BME280;11115;46.038;14.612;2022-11-20T01:33:59;97904.56;;;4.53;100.00
21902;BME280;11115;46.038;14.612;2022-11-20T01:36:30;97903.28;;;4.35;100.00
21902;BME280;11115;46.038;14.612;2022-11-20T01:39:21;97903.13;;;4.66;100.00
21902;BME280;11115;46.038;14.612;2022-11-20T01:41:49;97908.88;;;4.64;100.00
21902;BME280;11115;46.038;14.612;2022-11-20T01:44:56;97908.69;;;4.50;100.00
21902;BME280;11115;46.038;14.612;2022-11-20T01:47:34;97915.91;;;4.31;100.00
21902;BME280;11115;46.038;14.612;2022-11-20T01:50:16;97910.75;;;4.19;100.00
21902;BME280;11115;46.038;14.612;2022-11-20T01:52:53;97914.00;;;4.32;100.00
21902;BME280;11115;46.038;14.612;2022-11-20T01:55:26;97918.09;;;4.34;100.00
21902;BME280;11115;46.038;14.612;2022-11-20T01:57:56;97907.91;;;4.40;100.00
21902;BME280;11115;46.038;14.612;2022-11-20T02:00:23;97907.06;;;4.49;100.00
21902;BME280;11115;46.038;14.612;2022-11-20T02:02:56;97906.72;;;4.56;100.00
21902;BME280;11115;46.038;14.612;2022-11-20T02:05:32;97915.47;;;4.63;100.00
21902;BME280;11115;46.038;14.612;2022-11-20T02:08:05;97898.13;;;4.29;100.00
21902;BME280;11115;46.038;14.612;2022-11-20T02:10:34;97902.56;;;4.19;100.00
21902;BME280;11115;46.038;14.612;2022-11-20T02:13:02;97862.91;;;4.12;100.00
21902;BME280;11115;46.038;14.612;2022-11-20T02:15:48;97882.28;;;4.25;100.00
21902;BME280;11115;46.038;14.612;2022-11-20T02:18:18;97889.44;;;4.16;100.00
21902;BME280;11115;46.038;14.612;2022-11-20T02:20:49;97878.44;;;4.21;100.00
21902;BME280;11115;46.038;14.612;2022-11-20T02:23:39;97869.94;;;4.23;100.00
21902;BME280;11115;46.038;14.612;2022-11-20T02:26:11;97885.50;;;4.33;100.00
21902;BME280;11115;46.038;14.612;2022-11-20T02:28:40;97889.84;;;4.39;100.00
21902;BME280;11115;46.038;14.612;2022-11-20T02:31:08;97886.88;;;4.35;100.00
21902;BME280;11115;46.038;14.612;2022-11-20T02:33:36;97888.50;;;4.36;100.00
21902;BME280;11115;46.038;14.612;2022-11-20T02:36:04;97881.06;;;4.42;100.00
21902;BME280;11115;46.038;14.612;2022-11-20T02:38:32;97883.88;;;4.32;100.00
21902;BME280;11115;46.038;14.612;2022-11-20T02:41:03;97879.75;;;4.34;100.00
21902;BME280;11115;46.038;14.612;2022-11-20T02:43:30;97884.91;;;4.41;100.00
21902;BME280;11115;46.038;14.612;2022-11-20T02:45:58;97883.78;;;4.47;100.00
21902;BME280;11115;46.038;14.612;2022-11-20T02:48:26;97879.97;;;4.43;100.00
21902;BME280;11115;46.038;14.612;2022-11-20T02:50:59;97880.03;;;4.33;100.00
21902;BME280;11115;46.038;14.612;2022-11-20T02:53:27;97888.16;;;4.48;100.00
21902;BME280;11115;46.038;14.612;2022-11-20T02:55:55;97882.78;;;4.33;100.00
21902;BME280;11115;46.038;14.612;2022-11-20T02:58:22;97884.91;;;4.41;100.00
21902;BME280;11115;46.038;14.612;2022-11-20T03:00:51;97882.22;;;4.36;100.00
21902;BME280;11115;46.038;14.612;2022-11-20T03:03:19;97881.09;;;4.37;100.00
21902;BME280;11115;46.038;14.612;2022-11-20T03:05:47;97883.31;;;4.35;100.00
21902;BME280;11115;46.038;14.612;2022-11-20T03:08:17;97879.25;;;4.22;100.00
21902;BME280;11115;46.038;14.612;2022-11-20T03:10:45;97893.06;;;4.02;100.00
21902;BME280;11115;46.038;14.612;2022-11-20T03:13:12;97897.22;;;3.94;100.00
21902;BME280;11115;46.038;14.612;2022-11-20T03:15:40;97899.34;;;4.07;100.00
21902;BME280;11115;46.038;14.612;2022-11-20T03:18:08;97903.19;;;4.01;100.00
21902;BME280;11115;46.038;14.612;2022-11-20T03:20:35;97897.69;;;4.11;100.00
21902;BME280;11115;46.038;14.612;2022-11-20T03:23:03;97889.94;;;4.23;100.00
21902;BME280;11115;46.038;14.612;2022-11-20T03:25:31;97880.34;;;4.26;100.00
21902;BME280;11115;46.038;14.612;2022-11-20T03:27:58;97884.63;;;4.42;100.00
21902;BME280;11115;46.038;14.612;2022-11-20T03:30:26;97888.22;;;4.38;100.00
21902;BME280;11115;46.038;14.612;2022-11-20T03:32:56;97883.84;;;4.37;100.00
21902;BME280;11115;46.038;14.612;2022-11-20T03:35:24;97873.75;;;4.32;100.00
21902;BME280;11115;46.038;14.612;2022-11-20T03:37:52;97878.19;;;4.18;100.00
21902;BME280;11115;46.038;14.612;2022-11-20T03:40:19;97882.56;;;4.19;100.00
21902;BME280;11115;46.038;14.612;2022-11-20T03:42:47;97887.28;;;4.08;100.00
21902;BME280;11115;46.038;14.612;2022-11-20T03:45:18;97892.41;;;4.25;100.00
21902;BME280;11115;46.038;14.612;2022-11-20T03:47:46;97891.06;;;4.17;100.00
21902;BME280;11115;46.038;14.612;2022-11-20T03:50:14;97884.16;;;4.30;100.00
21902;BME280;11115;46.038;14.612;2022-11-20T03:52:42;97880.97;;;4.13;100.00
21902;BME280;11115;46.038;14.612;2022-11-20T03:55:10;97891.44;;;3.95;100.00
21902;BME280;11115;46.038;14.612;2022-11-20T03:57:37;97889.59;;;3.86;100.00
21902;BME280;11115;46.038;14.612;2022-11-20T04:00:06;97899.19;;;3.78;100.00
21902;BME280;11115;46.038;14.612;2022-11-20T04:02:33;97882.44;;;3.95;100.00
21902;BME280;11115;46.038;14.612;2022-11-20T04:05:01;97877.53;;;3.82;100.00
21902;BME280;11115;46.038;14.612;2022-11-20T04:07:29;97879.25;;;3.62;100.00
21902;BME280;11115;46.038;14.612;2022-11-20T04:10:00;97876.53;;;3.62;100.00
21902;BME280;11115;46.038;14.612;2022-11-20T04:12:31;97870.53;;;3.60;100.00
21902;BME280;11115;46.038;14.612;2022-11-20T04:14:59;97888.59;;;3.56;100.00
21902;BME280;11115;46.038;14.612;2022-11-20T04:17:27;97881.22;;;3.52;100.00
21902;BME280;11115;46.038;14.612;2022-11-20T04:19:54;97871.91;;;3.58;100.00
21902;BME280;11115;46.038;14.612;2022-11-20T04:22:22;97884.66;;;3.83;100.00
21902;BME280;11115;46.038;14.612;2022-11-20T04:24:50;97891.47;;;3.90;100.00
21902;BME280;11115;46.038;14.612;2022-11-20T04:27:18;97892.31;;;3.91;100.00
21902;BME280;11115;46.038;14.612;2022-11-20T04:29:45;97899.75;;;3.75;100.00
21902;BME280;11115;46.038;14.612;2022-11-20T04:32:13;97900.59;;;3.60;100.00
21902;BME280;11115;46.038;14.612;2022-11-20T04:34:41;97892.34;;;3.76;100.00
21902;BME280;11115;46.038;14.612;2022-11-20T04:37:11;97898.72;;;3.56;100.00
21902;BME280;11115;46.038;14.612;2022-11-20T04:39:39;97896.56;;;3.38;100.00
21902;BME280;11115;46.038;14.612;2022-11-20T04:42:08;97897.63;;;3.47;100.00
21902;BME280;11115;46.038;14.612;2022-11-20T04:44:54;97871.97;;;3.22;100.00
21902;BME280;11115;46.038;14.612;2022-11-20T04:47:22;97902.03;;;3.38;100.00
21902;BME280;11115;46.038;14.612;2022-11-20T04:49:50;97909.06;;;3.64;100.00
21902;BME280;11115;46.038;14.612;2022-11-20T04:52:18;97905.78;;;3.72;100.00
21902;BME280;11115;46.038;14.612;2022-11-20T04:54:45;97916.75;;;3.67;100.00
21902;BME280;11115;46.038;14.612;2022-11-20T04:57:13;97917.28;;;3.59;100.00
21902;BME280;11115;46.038;14.612;2022-11-20T04:59:41;97908.31;;;3.48;100.00
21902;BME280;11115;46.038;14.612;2022-11-20T05:02:10;97917.56;;;3.68;100.00
21902;BME280;11115;46.038;14.612;2022-11-20T05:04:38;97903.31;;;3.65;100.00
21902;BME280;11115;46.038;14.612;2022-11-20T05:07:06;97914.81;;;3.68;100.00
21902;BME280;11115;46.038;14.612;2022-11-20T05:09:34;97907.66;;;3.77;100.00
21902;BME280;11115;46.038;14.612;2022-11-20T05:12:01;97911.47;;;3.86;100.00
21902;BME280;11115;46.038;14.612;2022-11-20T05:14:29;97913.94;;;3.87;100.00
21902;BME280;11115;46.038;14.612;2022-11-20T05:16:57;97912.31;;;3.86;100.00
21902;BME280;11115;46.038;14.612;2022-11-20T05:19:24;97913.03;;;4.07;100.00
21902;BME280;11115;46.038;14.612;2022-11-20T05:21:52;97910.59;;;3.95;100.00
21902;BME280;11115;46.038;14.612;2022-11-20T05:24:20;97909.88;;;3.75;100.00
21902;BME280;11115;46.038;14.612;2022-11-20T05:26:54;97911.19;;;3.82;100.00
21902;BME280;11115;46.038;14.612;2022-11-20T05:29:22;97919.19;;;3.74;100.00
21902;BME280;11115;46.038;14.612;2022-11-20T05:31:49;97908.84;;;3.50;100.00
21902;BME280;11115;46.038;14.612;2022-11-20T05:34:17;97916.22;;;3.55;100.00
21902;BME280;11115;46.038;14.612;2022-11-20T05:36:45;97919.50;;;3.57;100.00
21902;BME280;11115;46.038;14.612;2022-11-20T05:39:12;97919.78;;;3.40;100.00
21902;BME280;11115;46.038;14.612;2022-11-20T05:41:40;97919.50;;;3.47;100.00
21902;BME280;11115;46.038;14.612;2022-11-20T05:44:10;97900.94;;;3.49;100.00
21902;BME280;11115;46.038;14.612;2022-11-20T05:46:38;97930.16;;;3.53;100.00
21902;BME280;11115;46.038;14.612;2022-11-20T05:49:06;97935.06;;;3.61;100.00
21902;BME280;11115;46.038;14.612;2022-11-20T05:51:33;97935.09;;;3.56;100.00
21902;BME280;11115;46.038;14.612;2022-11-20T05:54:01;97939.22;;;3.39;100.00
21902;BME280;11115;46.038;14.612;2022-11-20T05:56:29;97939.19;;;3.59;100.00
21902;BME280;11115;46.038;14.612;2022-11-20T05:58:57;97946.47;;;3.84;100.00
21902;BME280;11115;46.038;14.612;2022-11-20T06:01:25;97943.78;;;3.74;100.00
21902;BME280;11115;46.038;14.612;2022-11-20T06:03:54;97941.59;;;3.65;100.00
21902;BME280;11115;46.038;14.612;2022-11-20T06:06:22;97938.88;;;3.65;100.00
21902;BME280;11115;46.038;14.612;2022-11-20T06:08:51;97944.63;;;3.69;100.00
21902;BME280;11115;46.038;14.612;2022-11-20T06:11:19;97943.50;;;3.75;100.00
21902;BME280;11115;46.038;14.612;2022-11-20T06:13:47;97946.53;;;3.74;100.00
21902;BME280;11115;46.038;14.612;2022-11-20T06:16:17;97954.16;;;3.87;100.00
21902;BME280;11115;46.038;14.612;2022-11-20T06:18:46;97953.09;;;3.78;100.00
21902;BME280;11115;46.038;14.612;2022-11-20T06:21:23;97962.09;;;3.88;100.00
21902;BME280;11115;46.038;14.612;2022-11-20T06:23:57;97931.78;;;3.59;100.00
21902;BME280;11115;46.038;14.612;2022-11-20T06:26:26;97970.06;;;3.64;100.00
21902;BME280;11115;46.038;14.612;2022-11-20T06:28:54;97981.03;;;3.39;100.00
21902;BME280;11115;46.038;14.612;2022-11-20T06:31:24;97984.56;;;3.65;100.00
21902;BME280;11115;46.038;14.612;2022-11-20T06:33:53;97979.09;;;3.65;100.00
21902;BME280;11115;46.038;14.612;2022-11-20T06:36:22;97981.59;;;3.51;100.00
21902;BME280;11115;46.038;14.612;2022-11-20T06:38:50;97982.41;;;3.67;100.00
21902;BME280;11115;46.038;14.612;2022-11-20T06:41:21;97995.75;;;3.79;100.00
21902;BME280;11115;46.038;14.612;2022-11-20T06:43:49;97999.59;;;3.88;100.00
21902;BME280;11115;46.038;14.612;2022-11-20T06:46:18;98001.22;;;3.79;100.00
21902;BME280;11115;46.038;14.612;2022-11-20T06:48:47;98006.69;;;3.84;100.00
21902;BME280;11115;46.038;14.612;2022-11-20T06:51:21;98005.91;;;3.58;100.00
21902;BME280;11115;46.038;14.612;2022-11-20T06:53:49;98005.09;;;3.57;100.00
21902;BME280;11115;46.038;14.612;2022-11-20T06:56:17;97993.34;;;3.21;100.00
21902;BME280;11115;46.038;14.612;2022-11-20T06:58:44;98001.00;;;3.45;100.00
21902;BME280;11115;46.038;14.612;2022-11-20T07:01:14;98000.72;;;3.21;100.00
21902;BME280;11115;46.038;14.612;2022-11-20T07:03:42;98006.19;;;3.36;100.00
21902;BME280;11115;46.038;14.612;2022-11-20T07:06:12;98019.84;;;3.05;100.00
21902;BME280;11115;46.038;14.612;2022-11-20T07:08:40;98016.31;;;3.10;100.00
21902;BME280;11115;46.038;14.612;2022-11-20T07:11:07;98019.59;;;3.17;100.00
21902;BME280;11115;46.038;14.612;2022-11-20T07:13:35;98026.16;;;3.11;100.00
21902;BME280;11115;46.038;14.612;2022-11-20T07:16:07;98028.03;;;2.95;100.00
21902;BME280;11115;46.038;14.612;2022-11-20T07:18:35;98037.34;;;3.04;100.00
21902;BME280;11115;46.038;14.612;2022-11-20T07:21:06;98033.53;;;3.11;100.00
21902;BME280;11115;46.038;14.612;2022-11-20T07:23:34;98038.47;;;3.09;100.00
21902;BME280;11115;46.038;14.612;2022-11-20T07:26:05;98045.28;;;3.16;100.00
21902;BME280;11115;46.038;14.612;2022-11-20T07:28:33;98049.66;;;3.17;100.00
21902;BME280;11115;46.038;14.612;2022-11-20T07:31:01;98052.63;;;3.00;100.00
21902;BME280;11115;46.038;14.612;2022-11-20T07:33:29;98034.34;;;3.01;100.00
21902;BME280;11115;46.038;14.612;2022-11-20T07:35:59;98052.66;;;3.26;100.00
21902;BME280;11115;46.038;14.612;2022-11-20T07:38:27;98051.03;;;3.20;100.00
21902;BME280;11115;46.038;14.612;2022-11-20T07:40:56;98049.66;;;3.27;100.00
21902;BME280;11115;46.038;14.612;2022-11-20T07:43:24;98056.22;;;3.11;100.00
21902;BME280;11115;46.038;14.612;2022-11-20T07:45:55;98050.50;;;3.28;100.00
21902;BME280;11115;46.038;14.612;2022-11-20T07:48:23;98058.44;;;3.40;100.00
21902;BME280;11115;46.038;14.612;2022-11-20T07:50:54;98060.34;;;3.34;100.00
21902;BME280;11115;46.038;14.612;2022-11-20T07:53:23;98058.41;;;3.19;100.00
21902;BME280;11115;46.038;14.612;2022-11-20T07:55:51;98051.59;;;3.32;100.00
21902;BME280;11115;46.038;14.612;2022-11-20T07:58:20;98066.38;;;3.31;100.00
21902;BME280;11115;46.038;14.612;2022-11-20T08:00:47;98068.00;;;3.37;100.00
21902;BME280;11115;46.038;14.612;2022-11-20T08:03:18;98071.81;;;3.41;100.00
21902;BME280;11115;46.038;14.612;2022-11-20T08:05:51;98065.81;;;3.29;100.00
21902;BME280;11115;46.038;14.612;2022-11-20T08:08:19;98049.38;;;3.09;100.00
21902;BME280;11115;46.038;14.612;2022-11-20T08:10:47;98077.56;;;3.40;100.00
21902;BME280;11115;46.038;14.612;2022-11-20T08:13:18;98053.78;;;3.45;100.00
21902;BME280;11115;46.038;14.612;2022-11-20T08:16:03;98097.28;;;3.67;100.00
21902;BME280;11115;46.038;14.612;2022-11-20T08:18:31;98099.19;;;3.72;100.00
21902;BME280;11115;46.038;14.612;2022-11-20T08:21:05;98104.94;;;3.90;100.00
21902;BME280;11115;46.038;14.612;2022-11-20T08:23:33;98103.00;;;3.96;100.00
21902;BME280;11115;46.038;14.612;2022-11-20T08:26:03;98105.19;;;3.99;100.00
21902;BME280;11115;46.038;14.612;2022-11-20T08:28:31;98107.13;;;3.93;100.00
21902;BME280;11115;46.038;14.612;2022-11-20T08:31:00;98113.66;;;4.03;100.00
21902;BME280;11115;46.038;14.612;2022-11-20T08:33:28;98119.41;;;4.11;100.00
21902;BME280;11115;46.038;14.612;2022-11-20T08:36:01;98125.94;;;4.31;100.00
21902;BME280;11115;46.038;14.612;2022-11-20T08:38:35;98127.31;;;4.28;100.00
21902;BME280;11115;46.038;14.612;2022-11-20T08:41:04;98126.56;;;3.87;100.00
21902;BME280;11115;46.038;14.612;2022-11-20T08:43:54;98130.91;;;3.93;100.00
21902;BME280;11115;46.038;14.612;2022-11-20T08:46:24;98107.63;;;4.01;100.00
21902;BME280;11115;46.038;14.612;2022-11-20T08:48:52;98130.88;;;4.18;100.00
21902;BME280;11115;46.038;14.612;2022-11-20T08:51:20;98113.13;;;3.85;100.00
21902;BME280;11115;46.038;14.612;2022-11-20T08:53:48;98131.72;;;3.83;100.00
21902;BME280;11115;46.038;14.612;2022-11-20T08:56:16;98134.47;;;3.63;100.00
21902;BME280;11115;46.038;14.612;2022-11-20T08:58:44;98135.28;;;3.79;100.00
21902;BME280;11115;46.038;14.612;2022-11-20T09:01:32;98136.38;;;3.83;100.00
21902;BME280;11115;46.038;14.612;2022-11-20T09:03:59;98134.75;;;3.92;100.00
21902;BME280;11115;46.038;14.612;2022-11-20T09:06:27;98148.97;;;3.99;100.00
21902;BME280;11115;46.038;14.612;2022-11-20T09:08:56;98140.22;;;3.77;100.00
21902;BME280;11115;46.038;14.612;2022-11-20T09:11:31;98150.63;;;3.90;100.00
21902;BME280;11115;46.038;14.612;2022-11-20T09:13:59;98149.25;;;4.08;100.00
21902;BME280;11115;46.038;14.612;2022-11-20T09:16:29;98140.22;;;4.07;100.00
21902;BME280;11115;46.038;14.612;2022-11-20T09:18:57;98140.19;;;4.17;100.00
21902;BME280;11115;46.038;14.612;2022-11-20T09:21:44;98149.47;;;4.37;100.00
21902;BME280;11115;46.038;14.612;2022-11-20T09:24:12;98154.72;;;4.13;100.00
21902;BME280;11115;46.038;14.612;2022-11-20T09:26:40;98145.69;;;4.12;100.00
21902;BME280;11115;46.038;14.612;2022-11-20T09:29:07;98151.69;;;4.30;100.00
21902;BME280;11115;46.038;14.612;2022-11-20T09:31:35;98147.63;;;4.07;100.00
21902;BME280;11115;46.038;14.612;2022-11-20T09:34:03;98145.69;;;4.07;100.00
21902;BME280;11115;46.038;14.612;2022-11-20T09:36:31;98131.72;;;4.29;100.00
21902;BME280;11115;46.038;14.612;2022-11-20T09:38:58;98146.50;;;4.28;100.00
21902;BME280;11115;46.038;14.612;2022-11-20T09:47:49;98133.09;;;4.26;100.00
21902;BME280;11115;46.038;14.612;2022-11-20T09:50:46;98147.56;;;4.47;100.00
21902;BME280;11115;46.038;14.612;2022-11-20T09:56:03;98147.16;;;4.84;100.00
21902;BME280;11115;46.038;14.612;2022-11-20T09:58:35;98146.25;;;5.04;100.00
21902;BME280;11115;46.038;14.612;2022-11-20T10:01:12;98129.47;;;5.21;100.00
21902;BME280;11115;46.038;14.612;2022-11-20T10:06:18;98140.81;;;4.94;100.00
21902;BME280;11115;46.038;14.612;2022-11-20T10:08:58;98133.38;;;5.05;100.00
21902;BME280;11115;46.038;14.612;2022-11-20T10:11:46;98135.19;;;5.25;100.00
21902;BME280;11115;46.038;14.612;2022-11-20T10:16:56;98130.88;;;5.08;100.00
21902;BME280;11115;46.038;14.612;2022-11-20T10:22:32;98118.69;;;4.75;100.00
21902;BME280;11115;46.038;14.612;2022-11-20T10:25:15;98125.00;;;4.71;100.00
21902;BME280;11115;46.038;14.612;2022-11-20T10:27:53;98121.47;;;4.65;100.00
21902;BME280;11115;46.038;14.612;2022-11-20T10:30:24;98119.13;;;4.98;100.00
21902;BME280;11115;46.038;14.612;2022-11-20T10:33:00;98121.06;;;5.02;100.00
21902;BME280;11115;46.038;14.612;2022-11-20T10:38:01;98135.03;;;4.96;100.00
21902;BME280;11115;46.038;14.612;2022-11-20T10:40:44;98129.56;;;4.96;100.00
21902;BME280;11115;46.038;14.612;2022-11-20T10:43:17;98131.81;;;4.83;100.00
21902;BME280;11115;46.038;14.612;2022-11-20T10:45:56;98132.03;;;5.02;100.00
21902;BME280;11115;46.038;14.612;2022-11-20T10:48:26;98119.94;;;4.98;100.00
21902;BME280;11115;46.038;14.612;2022-11-20T10:51:01;98122.00;;;5.27;100.00
21902;BME280;11115;46.038;14.612;2022-11-20T10:56:41;98113.03;;;5.55;100.00
21902;BME280;11115;46.038;14.612;2022-11-20T11:02:19;98104.81;;;5.11;100.00
21902;BME280;11115;46.038;14.612;2022-11-20T11:04:52;98122.31;;;5.20;100.00
21902;BME280;11115;46.038;14.612;2022-11-20T11:07:36;98105.91;;;5.54;100.00
21902;BME280;11115;46.038;14.612;2022-11-20T11:12:48;98111.56;;;5.29;100.00
21902;BME280;11115;46.038;14.612;2022-11-20T11:15:35;98113.53;;;5.23;100.00
21902;BME280;11115;46.038;14.612;2022-11-20T11:18:03;98114.31;;;5.29;100.00
21902;BME280;11115;46.038;14.612;2022-11-20T11:20:31;98110.66;;;5.43;100.00
21902;BME280;11115;46.038;14.612;2022-11-20T11:22:59;98123.03;;;5.36;100.00
21902;BME280;11115;46.038;14.612;2022-11-20T11:25:32;98123.94;;;5.26;100.00
21902;BME280;11115;46.038;14.612;2022-11-20T11:30:46;98122.59;;;5.24;100.00
21902;BME280;11115;46.038;14.612;2022-11-20T11:33:21;98119.47;;;5.35;100.00
21902;BME280;11115;46.038;14.612;2022-11-20T11:35:51;98114.97;;;5.55;100.00
21902;BME280;11115;46.038;14.612;2022-11-20T11:38:27;98114.00;;;5.35;100.00
21902;BME280;11115;46.038;14.612;2022-11-20T11:40:56;98115.16;;;5.24;100.00
21902;BME280;11115;46.038;14.612;2022-11-20T11:43:30;98115.03;;;5.44;100.00
21902;BME280;11115;46.038;14.612;2022-11-20T11:46:33;98107.53;;;5.55;100.00
21902;BME280;11115;46.038;14.612;2022-11-20T11:51:47;98108.59;;;5.25;100.00
21902;BME280;11115;46.038;14.612;2022-11-20T11:54:26;98108.94;;;5.53;100.00
21902;BME280;11115;46.038;14.612;2022-11-20T11:57:00;98103.09;;;5.64;100.00
21902;BME280;11115;46.038;14.612;2022-11-20T11:59:47;98099.00;;;5.62;100.00
21902;BME280;11115;46.038;14.612;2022-11-20T12:02:29;98111.91;;;5.22;100.00
21902;BME280;11115;46.038;14.612;2022-11-20T12:05:13;98112.03;;;4.92;100.00
21902;BME280;11115;46.038;14.612;2022-11-20T12:07:59;98115.47;;;5.23;100.00
21902;BME280;11115;46.038;14.612;2022-11-20T12:10:50;98101.56;;;5.04;100.00
21902;BME280;11115;46.038;14.612;2022-11-20T12:13:28;98105.38;;;5.52;100.00
21902;BME280;11115;46.038;14.612;2022-11-20T12:16:03;98102.88;;;5.56;100.00
21902;BME280;11115;46.038;14.612;2022-11-20T12:18:31;98104.03;;;5.84;100.00
21902;BME280;11115;46.038;14.612;2022-11-20T12:29:32;98098.56;;;5.84;100.00
21902;BME280;11115;46.038;14.612;2022-11-20T12:37:48;98087.81;;;5.87;100.00
21902;BME280;11115;46.038;14.612;2022-11-20T12:42:59;98072.84;;;6.32;100.00
21902;BME280;11115;46.038;14.612;2022-11-20T12:48:50;98077.69;;;6.64;100.00
21902;BME280;11115;46.038;14.612;2022-11-20T12:57:31;98075.16;;;6.92;100.00
21902;BME280;11115;46.038;14.612;2022-11-20T13:03:03;98055.53;;;7.55;100.00
21902;BME280;11115;46.038;14.612;2022-11-20T13:08:33;98054.88;;;7.25;100.00
21902;BME280;11115;46.038;14.612;2022-11-20T13:16:38;98039.88;;;7.18;100.00
21902;BME280;11115;46.038;14.612;2022-11-20T13:19:11;98057.56;;;7.12;100.00
21902;BME280;11115;46.038;14.612;2022-11-20T13:21:42;98052.94;;;7.07;100.00
21902;BME280;11115;46.038;14.612;2022-11-20T13:24:21;98042.91;;;7.54;100.00
21902;BME280;11115;46.038;14.612;2022-11-20T13:27:04;98049.38;;;8.09;100.00
21902;BME280;11115;46.038;14.612;2022-11-20T13:29:34;98039.53;;;7.57;100.00
21902;BME280;11115;46.038;14.612;2022-11-20T13:32:20;98018.97;;;7.36;100.00
21902;BME280;11115;46.038;14.612;2022-11-20T13:34:59;98051.72;;;7.51;100.00
21902;BME280;11115;46.038;14.612;2022-11-20T13:37:33;98051.47;;;7.52;100.00
21902;BME280;11115;46.038;14.612;2022-11-20T13:40:22;98048.19;;;7.31;100.00
21902;BME280;11115;46.038;14.612;2022-11-20T13:43:14;98047.31;;;7.17;100.00
21902;BME280;11115;46.038;14.612;2022-11-20T13:45:54;98047.44;;;6.88;100.00
21902;BME280;11115;46.038;14.612;2022-11-20T13:48:25;98058.59;;;6.97;100.00
21902;BME280;11115;46.038;14.612;2022-11-20T13:51:05;98054.72;;;6.98;100.00
21902;BME280;11115;46.038;14.612;2022-11-20T13:56:24;98051.47;;;6.96;100.00
21902;BME280;11115;46.038;14.612;2022-11-20T13:59:10;98047.22;;;6.85;100.00
21902;BME280;11115;46.038;14.612;2022-11-20T14:01:42;98058.63;;;6.73;100.00
21902;BME280;11115;46.038;14.612;2022-11-20T14:04:15;98069.31;;;6.75;100.00
21902;BME280;11115;46.038;14.612;2022-11-20T14:06:49;98058.97;;;6.66;100.00
21902;BME280;11115;46.038;14.612;2022-11-20T14:09:28;98064.41;;;6.72;100.00
21902;BME280;11115;46.038;14.612;2022-11-20T14:11:56;98045.94;;;6.53;100.00
21902;BME280;11115;46.038;14.612;2022-11-20T14:14:26;98055.72;;;6.64;100.00
21902;BME280;11115;46.038;14.612;2022-11-20T14:17:08;98040.13;;;6.60;100.00
21902;BME280;11115;46.038;14.612;2022-11-20T14:19:37;98056.97;;;6.72;100.00
21902;BME280;11115;46.038;14.612;2022-11-20T14:22:07;98056.13;;;6.77;100.00
21902;BME280;11115;46.038;14.612;2022-11-20T14:24:36;98056.69;;;6.74;100.00
21902;BME280;11115;46.038;14.612;2022-11-20T14:27:04;98046.81;;;6.73;100.00
21902;BME280;11115;46.038;14.612;2022-11-20T14:29:36;98054.00;;;6.68;100.00